createdAt,value
2023-10-15T00:00:04.945Z,8.70
2023-10-15T00:01:07.141Z,8.70
2023-10-15T00:02:08.770Z,8.70
2023-10-15T00:03:10.206Z,8.70
2023-10-15T00:04:13.743Z,8.70
2023-10-15T00:05:21.733Z,8.80
2023-10-15T00:06:23.107Z,8.80
2023-10-15T00:07:24.500Z,8.80
2023-10-15T00:08:25.974Z,8.80
2023-10-15T00:09:27.324Z,8.80
2023-10-15T00:10:31.878Z,8.80
2023-10-15T00:11:33.336Z,8.90
2023-10-15T00:12:34.807Z,8.90
2023-10-15T00:13:36.176Z,8.90
2023-10-15T00:14:38.266Z,8.90
2023-10-15T00:15:41.216Z,9.00
2023-10-15T00:16:42.828Z,9.00
2023-10-15T00:17:44.500Z,8.90
2023-10-15T00:18:46.402Z,9.00
2023-10-15T00:19:48.238Z,9.00
2023-10-15T00:20:49.651Z,9.00
2023-10-15T00:21:52.926Z,9.10
2023-10-15T00:22:54.471Z,9.10
2023-10-15T00:23:55.749Z,9.10
2023-10-15T00:24:57.067Z,9.20
2023-10-15T00:26:00.734Z,9.20
2023-10-15T00:27:02.144Z,9.20
2023-10-15T00:28:10.198Z,9.10
2023-10-15T00:29:11.505Z,9.10
2023-10-15T00:30:20.579Z,9.20
2023-10-15T00:31:22.324Z,9.20
2023-10-15T00:32:23.881Z,9.20
2023-10-15T00:33:26.442Z,9.20
2023-10-15T00:34:31.330Z,9.20
2023-10-15T00:35:35.891Z,9.20
2023-10-15T00:36:39.116Z,9.20
2023-10-15T00:37:52.694Z,9.30
2023-10-15T00:38:54.260Z,9.20
2023-10-15T00:39:55.707Z,9.30
2023-10-15T00:41:09.237Z,9.30
2023-10-15T00:42:10.755Z,9.30
2023-10-15T00:43:15.066Z,9.30
2023-10-15T00:44:17.750Z,9.30
2023-10-15T00:45:21.755Z,9.40
2023-10-15T00:46:38.697Z,9.40
2023-10-15T00:47:40.423Z,9.30
2023-10-15T00:48:42.886Z,9.40
2023-10-15T00:49:45.134Z,9.30
2023-10-15T00:50:47.105Z,9.30
2023-10-15T00:51:48.531Z,9.30
2023-10-15T00:52:50.375Z,9.30
2023-10-15T00:53:55.694Z,9.30
2023-10-15T00:54:58.689Z,9.30
2023-10-15T00:56:05.667Z,9.40
2023-10-15T00:57:27.387Z,9.40
2023-10-15T00:58:49.137Z,9.40
2023-10-15T00:59:54.643Z,9.40
2023-10-15T01:01:01.822Z,9.40
2023-10-15T01:02:03.306Z,9.40
2023-10-15T01:03:08.189Z,9.40
2023-10-15T01:04:19.409Z,9.40
2023-10-15T01:05:21.060Z,9.40
2023-10-15T01:06:31.898Z,9.40
2023-10-15T01:07:42.545Z,9.40
2023-10-15T01:08:44.083Z,9.40
2023-10-15T01:09:45.784Z,9.50
2023-10-15T01:10:50.515Z,9.50
2023-10-15T01:12:25.923Z,9.50
2023-10-15T01:13:31.456Z,9.50
2023-10-15T01:14:33.107Z,9.50
2023-10-15T01:15:40.939Z,9.50
2023-10-15T01:16:42.535Z,9.50
2023-10-15T01:17:44.961Z,9.60
2023-10-15T01:18:56.941Z,9.50
2023-10-15T01:19:58.508Z,9.60
2023-10-15T01:21:02.465Z,9.60
2023-10-15T01:22:06.084Z,9.60
2023-10-15T01:23:08.141Z,9.60
2023-10-15T01:24:09.489Z,9.60
2023-10-15T01:25:26.299Z,9.60
2023-10-15T01:26:28.059Z,9.60
2023-10-15T01:27:30.301Z,9.60
2023-10-15T01:28:38.021Z,9.60
2023-10-15T01:29:42.390Z,9.70
2023-10-15T01:30:43.766Z,9.70
2023-10-15T01:31:52.953Z,9.70
2023-10-15T01:32:55.746Z,9.70
2023-10-15T01:33:57.796Z,9.70
2023-10-15T01:35:00.682Z,9.80
2023-10-15T01:36:07.635Z,9.80
2023-10-15T01:37:16.945Z,9.70
2023-10-15T01:38:27.806Z,9.80
2023-10-15T01:39:41.407Z,9.80
2023-10-15T01:40:45.802Z,9.70
2023-10-15T01:41:51.329Z,9.80
2023-10-15T01:42:55.715Z,9.70
2023-10-15T01:44:02.335Z,9.80
2023-10-15T01:45:14.654Z,9.80
2023-10-15T01:46:45.995Z,9.80
2023-10-15T01:47:51.499Z,9.80
2023-10-15T01:48:53.081Z,9.80
2023-10-15T01:49:57.767Z,9.80
2023-10-15T01:51:05.957Z,9.80
2023-10-15T01:52:10.801Z,9.80
2023-10-15T01:53:13.847Z,9.80
2023-10-15T01:54:15.948Z,9.90
2023-10-15T01:55:19.256Z,9.80
2023-10-15T01:56:24.503Z,9.80
2023-10-15T01:57:25.959Z,9.80
2023-10-15T01:58:33.862Z,9.90
2023-10-15T01:59:46.775Z,9.80
2023-10-15T02:00:51.504Z,9.80
2023-10-15T02:01:57.642Z,9.80
2023-10-15T02:02:59.208Z,9.80
2023-10-15T02:04:00.664Z,9.80
2023-10-15T02:05:04.028Z,9.80
2023-10-15T02:06:07.123Z,9.80
2023-10-15T02:07:08.774Z,9.80
2023-10-15T02:08:24.598Z,9.80
2023-10-15T02:09:30.656Z,9.80
2023-10-15T02:10:32.638Z,9.80
2023-10-15T02:11:37.180Z,9.80
2023-10-15T02:12:38.478Z,9.80
2023-10-15T02:13:41.963Z,9.80
2023-10-15T02:14:45.277Z,9.80
2023-10-15T02:15:50.439Z,9.80
2023-10-15T02:16:52.229Z,9.80
2023-10-15T02:17:54.146Z,9.80
2023-10-15T02:18:59.543Z,9.80
2023-10-15T02:20:09.309Z,9.80
2023-10-15T02:21:11.200Z,9.80
2023-10-15T02:22:15.812Z,9.90
2023-10-15T02:23:17.175Z,9.80
2023-10-15T02:24:18.464Z,9.90
2023-10-15T02:25:23.361Z,9.90
2023-10-15T02:26:31.486Z,9.90
2023-10-15T02:27:36.819Z,9.80
2023-10-15T02:28:40.843Z,9.80
2023-10-15T02:29:43.108Z,9.80
2023-10-15T02:30:47.966Z,9.80
2023-10-15T02:31:49.397Z,9.80
2023-10-15T02:32:54.906Z,9.80
2023-10-15T02:33:57.234Z,9.80
2023-10-15T02:34:59.501Z,9.80
2023-10-15T02:36:01.752Z,9.80
2023-10-15T02:37:05.492Z,9.80
2023-10-15T02:38:11.484Z,9.80
2023-10-15T02:39:13.444Z,9.80
2023-10-15T02:40:18.224Z,9.80
2023-10-15T02:41:42.158Z,9.80
2023-10-15T02:42:53.795Z,9.80
2023-10-15T02:43:55.576Z,9.80
2023-10-15T02:45:00.044Z,9.80
2023-10-15T02:46:01.695Z,9.80
2023-10-15T02:47:11.670Z,9.80
2023-10-15T02:48:20.972Z,9.80
2023-10-15T02:49:26.728Z,9.90
2023-10-15T02:50:28.270Z,9.90
2023-10-15T02:51:29.955Z,9.90
2023-10-15T02:52:46.585Z,9.90
2023-10-15T02:54:04.748Z,9.90
2023-10-15T02:55:11.977Z,9.90
2023-10-15T02:56:13.796Z,9.90
2023-10-15T02:57:18.335Z,9.90
2023-10-15T02:58:23.349Z,9.90
2023-10-15T02:59:24.840Z,9.90
2023-10-15T03:00:28.755Z,9.90
2023-10-15T03:01:30.160Z,9.80
2023-10-15T03:02:43.144Z,9.80
2023-10-15T03:03:50.517Z,9.80
2023-10-15T03:04:57.913Z,9.80
2023-10-15T03:05:59.392Z,9.80
2023-10-15T03:07:28.374Z,9.80
2023-10-15T03:08:48.952Z,9.80
2023-10-15T03:09:52.607Z,9.80
2023-10-15T03:10:59.862Z,9.80
2023-10-15T03:12:05.260Z,9.80
2023-10-15T03:13:08.697Z,9.80
2023-10-15T03:14:13.594Z,9.80
2023-10-15T03:15:16.389Z,9.80
2023-10-15T03:16:19.962Z,9.80
2023-10-15T03:17:30.645Z,9.80
2023-10-15T03:18:35.287Z,9.80
2023-10-15T03:19:37.327Z,9.80
2023-10-15T03:20:49.710Z,9.80
2023-10-15T03:21:59.145Z,9.90
2023-10-15T03:23:01.292Z,9.90
2023-10-15T03:24:06.309Z,9.80
2023-10-15T03:25:14.362Z,9.80
2023-10-15T03:26:20.758Z,9.80
2023-10-15T03:27:27.743Z,9.80
2023-10-15T03:28:29.921Z,9.80
2023-10-15T03:29:31.409Z,9.80
2023-10-15T03:30:34.751Z,9.80
2023-10-15T03:31:38.406Z,9.80
2023-10-15T03:32:42.666Z,9.80
2023-10-15T03:34:04.244Z,9.80
2023-10-15T03:35:06.452Z,9.80
2023-10-15T03:36:13.980Z,9.90
2023-10-15T03:37:16.455Z,9.80
2023-10-15T03:38:24.720Z,9.80
2023-10-15T03:39:27.015Z,9.80
2023-10-15T03:40:32.185Z,9.80
2023-10-15T03:41:41.180Z,9.90
2023-10-15T03:42:42.566Z,9.90
2023-10-15T03:43:47.885Z,9.90
2023-10-15T03:44:49.343Z,9.90
2023-10-15T03:45:54.125Z,9.90
2023-10-15T03:47:07.321Z,9.90
2023-10-15T03:48:15.986Z,9.90
2023-10-15T03:49:27.962Z,10.00
2023-10-15T03:50:29.880Z,10.00
2023-10-15T03:51:31.155Z,10.00
2023-10-15T03:52:35.416Z,10.00
2023-10-15T03:53:37.218Z,10.00
2023-10-15T03:54:39.385Z,10.00
2023-10-15T03:55:40.954Z,10.00
2023-10-15T03:56:45.323Z,9.90
2023-10-15T03:57:50.141Z,9.90
2023-10-15T03:58:53.020Z,10.00
2023-10-15T03:59:54.958Z,10.00
2023-10-15T04:01:29.332Z,10.00
2023-10-15T04:02:39.847Z,10.00
2023-10-15T04:03:44.391Z,10.00
2023-10-15T04:04:47.712Z,10.00
2023-10-15T04:05:53.385Z,10.00
2023-10-15T04:07:04.759Z,10.00
2023-10-15T04:08:18.612Z,10.00
2023-10-15T04:09:24.685Z,10.00
2023-10-15T04:10:34.586Z,10.00
2023-10-15T04:11:45.766Z,10.00
2023-10-15T04:12:47.142Z,10.00
2023-10-15T04:13:48.520Z,10.00
2023-10-15T04:14:50.344Z,10.10
2023-10-15T04:15:51.772Z,10.10
2023-10-15T04:16:53.559Z,10.00
2023-10-15T04:17:55.065Z,10.00
2023-10-15T04:19:01.393Z,10.00
2023-10-15T04:20:02.818Z,10.10
2023-10-15T04:21:04.141Z,10.00
2023-10-15T04:22:14.953Z,10.00
2023-10-15T04:23:31.414Z,10.00
2023-10-15T04:24:38.952Z,10.00
2023-10-15T04:25:40.958Z,10.00
2023-10-15T04:26:43.981Z,10.00
2023-10-15T04:27:45.289Z,10.00
2023-10-15T04:28:46.818Z,10.00
2023-10-15T04:29:50.937Z,10.00
2023-10-15T04:30:52.779Z,10.00
2023-10-15T04:32:01.976Z,10.00
2023-10-15T04:33:08.295Z,10.00
2023-10-15T04:34:15.322Z,10.00
2023-10-15T04:35:19.956Z,10.00
2023-10-15T04:36:21.731Z,9.90
2023-10-15T04:37:24.864Z,10.00
2023-10-15T04:38:29.386Z,10.00
2023-10-15T04:41:02.522Z,9.90
2023-10-15T04:42:08.477Z,9.90
2023-10-15T04:43:09.837Z,9.90
2023-10-15T04:44:21.856Z,9.80
2023-10-15T04:45:35.498Z,9.80
2023-10-15T04:46:42.747Z,9.80
2023-10-15T04:47:44.892Z,9.70
2023-10-15T04:48:51.664Z,9.90
2023-10-15T04:49:57.945Z,9.80
2023-10-15T04:51:05.949Z,9.80
2023-10-15T04:52:14.997Z,9.80
2023-10-15T04:53:16.384Z,9.80
2023-10-15T04:54:18.954Z,9.80
2023-10-15T04:55:20.312Z,9.80
2023-10-15T04:56:23.073Z,9.80
2023-10-15T04:57:25.682Z,9.70
2023-10-15T04:58:28.783Z,9.80
2023-10-15T04:59:30.507Z,9.80
2023-10-15T05:00:34.497Z,9.80
2023-10-15T05:01:35.947Z,9.70
2023-10-15T05:02:37.884Z,9.70
2023-10-15T05:03:39.646Z,9.70
2023-10-15T05:04:41.122Z,9.70
2023-10-15T05:05:43.515Z,9.70
2023-10-15T05:06:45.429Z,9.70
2023-10-15T05:07:46.829Z,9.70
2023-10-15T05:08:48.868Z,9.70
2023-10-15T05:09:50.394Z,9.70
2023-10-15T05:10:52.655Z,9.70
2023-10-15T05:11:54.613Z,9.70
2023-10-15T05:12:56.392Z,9.80
2023-10-15T05:13:58.058Z,9.80
2023-10-15T05:14:59.823Z,9.80
2023-10-15T05:16:01.524Z,9.80
2023-10-15T05:17:02.871Z,9.80
2023-10-15T05:18:05.833Z,9.80
2023-10-15T05:19:08.187Z,9.80
2023-10-15T05:20:14.058Z,9.90
2023-10-15T05:21:15.450Z,9.90
2023-10-15T05:22:16.724Z,9.90
2023-10-15T05:23:19.667Z,10.00
2023-10-15T05:24:20.984Z,10.00
2023-10-15T05:25:22.256Z,9.90
2023-10-15T05:26:24.209Z,9.90
2023-10-15T05:27:25.529Z,9.90
2023-10-15T05:28:28.029Z,9.90
2023-10-15T05:29:32.350Z,9.90
2023-10-15T05:30:34.813Z,9.90
2023-10-15T05:31:36.963Z,9.90
2023-10-15T05:32:39.149Z,9.90
2023-10-15T05:33:40.530Z,9.90
2023-10-15T05:34:41.847Z,9.90
2023-10-15T05:35:48.324Z,9.90
2023-10-15T05:36:50.232Z,9.90
2023-10-15T05:37:51.631Z,9.90
2023-10-15T05:38:52.945Z,9.90
2023-10-15T05:39:54.339Z,10.00
2023-10-15T05:40:58.889Z,10.00
2023-10-15T05:42:00.301Z,9.90
2023-10-15T05:43:02.658Z,9.90
2023-10-15T05:44:04.722Z,9.90
2023-10-15T05:45:07.955Z,9.90
2023-10-15T05:46:09.454Z,9.90
2023-10-15T05:47:11.124Z,9.90
2023-10-15T05:48:13.015Z,9.80
2023-10-15T05:49:14.470Z,9.80
2023-10-15T05:50:17.362Z,9.80
2023-10-15T05:51:18.765Z,9.90
2023-10-15T05:52:20.128Z,9.90
2023-10-15T05:53:21.547Z,9.80
2023-10-15T05:54:22.957Z,9.80
2023-10-15T05:55:24.776Z,9.80
2023-10-15T05:56:28.580Z,9.80
2023-10-15T05:57:29.977Z,9.80
2023-10-15T05:58:33.726Z,9.70
2023-10-15T05:59:36.416Z,9.70
2023-10-15T06:00:41.055Z,9.80
2023-10-15T06:01:43.245Z,9.80
2023-10-15T06:02:48.501Z,9.80
2023-10-15T06:03:50.348Z,9.80
2023-10-15T06:04:51.783Z,9.90
2023-10-15T06:05:57.879Z,9.90
2023-10-15T06:06:59.503Z,9.90
2023-10-15T06:08:01.328Z,9.90
2023-10-15T06:09:02.759Z,10.00
2023-10-15T06:10:06.653Z,10.00
2023-10-15T06:11:08.032Z,10.00
2023-10-15T06:12:10.788Z,10.00
2023-10-15T06:13:12.147Z,9.90
2023-10-15T06:14:13.609Z,9.90
2023-10-15T06:15:19.366Z,9.80
2023-10-15T06:16:22.444Z,9.80
2023-10-15T06:17:24.040Z,9.80
2023-10-15T06:18:25.704Z,9.80
2023-10-15T06:19:27.618Z,9.80
2023-10-15T06:20:29.862Z,9.80
2023-10-15T06:21:31.529Z,9.90
2023-10-15T06:22:32.881Z,9.90
2023-10-15T06:23:34.576Z,9.90
2023-10-15T06:24:38.225Z,9.90
2023-10-15T06:25:41.361Z,10.00
2023-10-15T06:26:42.722Z,10.00
2023-10-15T06:27:44.075Z,10.00
2023-10-15T06:28:45.586Z,10.00
2023-10-15T06:29:46.994Z,10.00
2023-10-15T06:30:48.803Z,10.00
2023-10-15T06:31:50.235Z,10.00
2023-10-15T06:32:54.315Z,10.00
2023-10-15T06:33:56.720Z,10.00
2023-10-15T06:34:59.135Z,10.10
2023-10-15T06:36:00.529Z,10.10
2023-10-15T06:37:02.192Z,10.10
2023-10-15T06:38:03.860Z,10.10
2023-10-15T06:39:06.998Z,10.10
2023-10-15T06:40:21.499Z,10.10
2023-10-15T06:41:27.650Z,10.10
2023-10-15T06:42:29.079Z,10.10
2023-10-15T06:43:30.868Z,10.10
2023-10-15T06:44:32.590Z,10.10
2023-10-15T06:45:34.279Z,10.10
2023-10-15T06:46:35.832Z,10.10
2023-10-15T06:47:38.449Z,10.20
2023-10-15T06:48:40.053Z,10.20
2023-10-15T06:49:41.628Z,10.20
2023-10-15T06:50:43.822Z,10.20
2023-10-15T06:51:45.667Z,10.20
2023-10-15T06:52:47.683Z,10.20
2023-10-15T06:53:49.068Z,10.30
2023-10-15T06:54:50.436Z,10.30
2023-10-15T06:55:52.380Z,10.40
2023-10-15T06:56:54.044Z,10.40
2023-10-15T06:57:55.470Z,10.40
2023-10-15T06:58:57.308Z,10.40
2023-10-15T06:59:59.746Z,10.40
2023-10-15T07:01:01.270Z,10.40
2023-10-15T07:02:05.058Z,10.40
2023-10-15T07:03:06.867Z,10.50
2023-10-15T07:04:08.938Z,10.50
2023-10-15T07:05:10.391Z,10.50
2023-10-15T07:06:12.365Z,10.60
2023-10-15T07:07:15.593Z,10.60
2023-10-15T07:08:17.954Z,10.60
2023-10-15T07:09:19.928Z,10.70
2023-10-15T07:10:22.768Z,10.70
2023-10-15T07:11:24.270Z,10.70
2023-10-15T07:12:26.500Z,10.80
2023-10-15T07:13:28.256Z,10.80
2023-10-15T07:14:31.182Z,10.80
2023-10-15T07:15:36.687Z,10.90
2023-10-15T07:16:42.080Z,10.90
2023-10-15T07:17:45.278Z,10.90
2023-10-15T07:18:47.200Z,11.00
2023-10-15T07:19:48.617Z,11.00
2023-10-15T07:20:50.038Z,11.10
2023-10-15T07:21:53.150Z,11.10
2023-10-15T07:22:55.492Z,11.10
2023-10-15T07:23:58.198Z,11.20
2023-10-15T07:24:59.720Z,11.20
2023-10-15T07:26:01.269Z,11.20
2023-10-15T07:27:02.743Z,11.20
2023-10-15T07:28:05.961Z,11.20
2023-10-15T07:29:08.571Z,11.30
2023-10-15T07:30:13.567Z,11.30
2023-10-15T07:31:15.287Z,11.40
2023-10-15T07:32:16.750Z,11.40
2023-10-15T07:33:18.407Z,11.40
2023-10-15T07:34:19.778Z,11.50
2023-10-15T07:35:22.753Z,11.50
2023-10-15T07:36:24.292Z,11.60
2023-10-15T07:37:25.966Z,11.50
2023-10-15T07:38:27.412Z,11.60
2023-10-15T07:39:28.927Z,11.70
2023-10-15T07:40:33.742Z,11.70
2023-10-15T07:41:38.091Z,11.70
2023-10-15T07:42:40.026Z,11.80
2023-10-15T07:43:41.806Z,11.70
2023-10-15T07:44:43.452Z,11.60
2023-10-15T07:45:45.547Z,11.60
2023-10-15T07:46:47.815Z,11.60
2023-10-15T07:47:50.003Z,11.50
2023-10-15T07:48:52.512Z,11.50
2023-10-15T07:49:53.920Z,11.50
2023-10-15T07:50:56.414Z,11.40
2023-10-15T07:51:57.886Z,11.40
2023-10-15T07:53:00.554Z,11.50
2023-10-15T07:54:04.522Z,11.40
2023-10-15T07:55:07.831Z,11.40
2023-10-15T07:56:09.327Z,11.30
2023-10-15T07:57:15.284Z,11.20
2023-10-15T07:58:17.123Z,11.20
2023-10-15T07:59:18.712Z,11.20
2023-10-15T08:00:34.727Z,11.20
2023-10-15T08:01:38.218Z,11.10
2023-10-15T08:02:40.505Z,11.10
2023-10-15T08:03:42.269Z,11.10
2023-10-15T08:04:44.474Z,11.10
2023-10-15T08:05:47.735Z,11.20
2023-10-15T08:06:49.696Z,11.10
2023-10-15T08:07:52.461Z,11.00
2023-10-15T08:08:54.036Z,11.10
2023-10-15T08:09:55.793Z,11.20
2023-10-15T08:10:57.401Z,11.10
2023-10-15T08:11:58.861Z,11.00
2023-10-15T08:13:00.512Z,11.00
2023-10-15T08:14:02.035Z,11.00
2023-10-15T08:15:03.934Z,11.10
2023-10-15T08:16:06.289Z,11.00
2023-10-15T08:17:08.845Z,10.90
2023-10-15T08:18:10.360Z,11.00
2023-10-15T08:19:11.904Z,11.10
2023-10-15T08:20:13.867Z,11.20
2023-10-15T08:21:16.475Z,11.10
2023-10-15T08:22:18.336Z,11.20
2023-10-15T08:23:19.845Z,11.20
2023-10-15T08:24:21.321Z,11.40
2023-10-15T08:25:22.911Z,11.40
2023-10-15T08:26:24.554Z,11.40
2023-10-15T08:27:26.013Z,11.40
2023-10-15T08:28:27.492Z,11.40
2023-10-15T08:29:28.924Z,11.50
2023-10-15T08:30:33.391Z,11.40
2023-10-15T08:31:35.147Z,11.40
2023-10-15T08:32:36.624Z,11.40
2023-10-15T08:33:38.106Z,11.40
2023-10-15T08:34:39.807Z,11.40
2023-10-15T08:35:41.536Z,11.40
2023-10-15T08:36:43.560Z,11.50
2023-10-15T08:37:46.904Z,11.50
2023-10-15T08:38:50.753Z,11.60
2023-10-15T08:39:52.467Z,11.70
2023-10-15T08:40:57.036Z,11.80
2023-10-15T08:42:01.502Z,11.90
2023-10-15T08:43:14.437Z,12.00
2023-10-15T08:44:19.609Z,12.10
2023-10-15T08:45:23.309Z,12.10
2023-10-15T08:46:25.370Z,12.20
2023-10-15T08:47:27.823Z,12.30
2023-10-15T08:48:30.139Z,12.30
2023-10-15T08:49:38.200Z,12.40
2023-10-15T08:50:41.449Z,12.40
2023-10-15T08:51:45.065Z,12.40
2023-10-15T08:52:47.471Z,12.20
2023-10-15T08:53:51.222Z,12.10
2023-10-15T08:54:53.731Z,11.90
2023-10-15T08:55:58.984Z,12.00
2023-10-15T08:57:00.695Z,12.00
2023-10-15T08:58:02.365Z,12.10
2023-10-15T08:59:05.683Z,12.00
2023-10-15T09:00:31.764Z,12.10
2023-10-15T09:01:34.942Z,12.00
2023-10-15T09:02:36.782Z,11.90
2023-10-15T09:03:39.506Z,12.00
2023-10-15T09:04:41.466Z,11.90
2023-10-15T09:05:43.635Z,11.90
2023-10-15T09:06:48.911Z,12.00
2023-10-15T09:07:53.138Z,12.10
2023-10-15T09:08:54.454Z,12.20
2023-10-15T09:09:56.063Z,12.20
2023-10-15T09:10:57.564Z,12.20
2023-10-15T09:12:00.665Z,12.20
2023-10-15T09:13:02.336Z,12.20
2023-10-15T09:14:04.023Z,12.10
2023-10-15T09:15:17.296Z,12.00
2023-10-15T09:16:20.755Z,12.00
2023-10-15T09:17:22.242Z,12.00
2023-10-15T09:18:26.737Z,12.00
2023-10-15T09:19:28.159Z,11.80
2023-10-15T09:20:34.278Z,11.80
2023-10-15T09:21:38.264Z,11.90
2023-10-15T09:22:40.571Z,11.90
2023-10-15T09:23:43.877Z,12.00
2023-10-15T09:24:46.704Z,11.90
2023-10-15T09:25:48.108Z,11.90
2023-10-15T09:26:49.546Z,11.90
2023-10-15T09:27:53.785Z,12.00
2023-10-15T09:28:55.108Z,12.00
2023-10-15T09:30:15.783Z,12.00
2023-10-15T09:31:18.093Z,12.10
2023-10-15T09:32:20.217Z,12.10
2023-10-15T09:33:31.669Z,12.10
2023-10-15T09:34:34.555Z,12.20
2023-10-15T09:35:36.628Z,12.30
2023-10-15T09:36:38.108Z,12.30
2023-10-15T09:37:40.889Z,12.40
2023-10-15T09:38:42.249Z,12.40
2023-10-15T09:39:44.774Z,12.50
2023-10-15T09:40:46.448Z,12.40
2023-10-15T09:41:47.935Z,12.50
2023-10-15T09:42:54.022Z,12.50
2023-10-15T09:43:58.962Z,12.50
2023-10-15T09:45:03.247Z,12.50
2023-10-15T09:46:07.639Z,12.50
2023-10-15T09:47:09.598Z,12.40
2023-10-15T09:48:11.059Z,12.50
2023-10-15T09:49:14.685Z,12.50
2023-10-15T09:50:26.241Z,12.50
2023-10-15T09:51:28.353Z,12.50
2023-10-15T09:52:30.947Z,12.50
2023-10-15T09:53:35.156Z,12.50
2023-10-15T09:54:38.174Z,12.50
2023-10-15T09:55:43.682Z,12.40
2023-10-15T09:56:47.170Z,12.50
2023-10-15T09:57:48.536Z,12.50
2023-10-15T09:58:49.904Z,12.50
2023-10-15T09:59:54.650Z,12.60
2023-10-15T10:01:10.174Z,12.60
2023-10-15T10:02:16.506Z,12.70
2023-10-15T10:03:27.657Z,12.80
2023-10-15T10:04:43.444Z,12.90
2023-10-15T10:05:58.301Z,13.00
2023-10-15T10:07:15.585Z,13.20
2023-10-15T10:08:47.191Z,13.30
2023-10-15T10:10:25.654Z,13.40
2023-10-15T10:11:52.327Z,13.30
2023-10-15T10:13:12.839Z,13.30
2023-10-15T10:14:50.960Z,13.30
2023-10-15T10:15:58.844Z,13.20
2023-10-15T10:17:03.433Z,13.20
2023-10-15T10:18:05.590Z,13.20
2023-10-15T10:19:09.691Z,13.20
2023-10-15T10:20:14.738Z,13.30
2023-10-15T10:21:18.000Z,13.40
2023-10-15T10:22:30.214Z,13.30
2023-10-15T10:23:42.690Z,13.20
2023-10-15T10:24:49.732Z,13.10
2023-10-15T10:25:51.164Z,13.10
2023-10-15T10:26:54.949Z,13.10
2023-10-15T10:28:16.882Z,12.90
2023-10-15T10:29:19.829Z,12.80
2023-10-15T10:30:28.408Z,12.70
2023-10-15T10:31:34.749Z,12.70
2023-10-15T10:32:36.996Z,12.70
2023-10-15T10:33:47.771Z,12.80
2023-10-15T10:35:15.760Z,12.90
2023-10-15T10:36:21.202Z,12.90
2023-10-15T10:37:24.201Z,13.00
2023-10-15T10:38:25.662Z,13.20
2023-10-15T10:39:44.847Z,13.30
2023-10-15T10:40:49.062Z,13.40
2023-10-15T10:41:52.151Z,13.50
2023-10-15T10:43:03.169Z,13.60
2023-10-15T10:44:22.904Z,13.70
2023-10-15T10:45:51.929Z,13.70
2023-10-15T10:46:54.452Z,13.60
2023-10-15T10:47:56.577Z,13.50
2023-10-15T10:49:14.691Z,13.50
2023-10-15T10:50:20.706Z,13.20
2023-10-15T10:51:31.753Z,13.10
2023-10-15T10:52:38.071Z,13.10
2023-10-15T10:53:58.801Z,13.00
2023-10-15T10:55:39.261Z,13.00
2023-10-15T10:56:40.596Z,12.90
2023-10-15T10:57:45.301Z,12.90
2023-10-15T10:58:48.049Z,12.80
2023-10-15T10:59:50.346Z,12.70
2023-10-15T11:00:52.575Z,12.50
2023-10-15T11:01:54.503Z,12.40
2023-10-15T11:02:57.944Z,12.20
2023-10-15T11:04:00.210Z,12.10
2023-10-15T11:05:02.691Z,12.00
2023-10-15T11:06:08.720Z,12.10
2023-10-15T11:07:12.452Z,12.10
2023-10-15T11:08:21.573Z,12.10
2023-10-15T11:09:26.286Z,12.00
2023-10-15T11:10:33.067Z,11.90
2023-10-15T11:11:34.784Z,11.80
2023-10-15T11:12:36.996Z,11.80
2023-10-15T11:13:39.008Z,11.90
2023-10-15T11:14:42.304Z,11.90
2023-10-15T11:15:53.127Z,11.90
2023-10-15T11:16:58.523Z,12.00
2023-10-15T11:18:00.635Z,12.00
2023-10-15T11:19:02.108Z,12.00
2023-10-15T11:20:07.069Z,12.00
2023-10-15T11:21:10.352Z,12.10
2023-10-15T11:22:15.124Z,12.00
2023-10-15T11:23:16.474Z,12.00
2023-10-15T11:24:19.098Z,12.00
2023-10-15T11:25:24.380Z,12.10
2023-10-15T11:26:25.815Z,12.10
2023-10-15T11:27:27.683Z,12.10
2023-10-15T11:28:29.038Z,12.00
2023-10-15T11:29:32.968Z,12.00
2023-10-15T11:30:34.617Z,12.00
2023-10-15T11:31:37.787Z,12.00
2023-10-15T11:32:40.387Z,12.00
2023-10-15T11:33:41.982Z,12.00
2023-10-15T11:34:43.845Z,12.00
2023-10-15T11:35:49.385Z,12.00
2023-10-15T11:36:53.314Z,12.10
2023-10-15T11:37:55.224Z,12.20
2023-10-15T11:38:56.812Z,12.30
2023-10-15T11:39:58.187Z,12.40
2023-10-15T11:41:00.486Z,12.40
2023-10-15T11:42:04.480Z,12.40
2023-10-15T11:43:21.303Z,12.50
2023-10-15T11:44:28.473Z,12.50
2023-10-15T11:45:31.611Z,12.60
2023-10-15T11:46:36.854Z,12.50
2023-10-15T11:47:39.447Z,12.60
2023-10-15T11:48:40.969Z,12.70
2023-10-15T11:49:46.304Z,12.70
2023-10-15T11:50:49.307Z,12.80
2023-10-15T11:51:56.452Z,12.80
2023-10-15T11:53:00.356Z,12.90
2023-10-15T11:54:02.431Z,13.00
2023-10-15T11:55:07.255Z,13.20
2023-10-15T11:56:17.947Z,13.20
2023-10-15T11:57:27.099Z,13.40
2023-10-15T11:58:32.837Z,13.50
2023-10-15T11:59:34.265Z,13.60
2023-10-15T12:00:35.830Z,13.80
2023-10-15T12:01:37.392Z,13.80
2023-10-15T12:02:39.356Z,14.00
2023-10-15T12:03:42.823Z,14.10
2023-10-15T12:04:44.278Z,14.20
2023-10-15T12:05:46.312Z,14.20
2023-10-15T12:06:48.361Z,14.20
2023-10-15T12:07:52.218Z,14.30
2023-10-15T12:08:59.667Z,14.10
2023-10-15T12:10:01.135Z,14.00
2023-10-15T12:11:03.058Z,13.80
2023-10-15T12:12:04.887Z,13.80
2023-10-15T12:13:06.284Z,13.70
2023-10-15T12:14:08.211Z,13.60
2023-10-15T12:15:10.748Z,13.50
2023-10-15T12:16:12.291Z,13.50
2023-10-15T12:17:17.304Z,13.50
2023-10-15T12:18:19.702Z,13.50
2023-10-15T12:19:21.903Z,13.50
2023-10-15T12:20:25.942Z,13.60
2023-10-15T12:21:27.449Z,13.70
2023-10-15T12:22:28.854Z,13.70
2023-10-15T12:23:30.259Z,13.70
2023-10-15T12:24:36.153Z,13.70
2023-10-15T12:25:39.401Z,13.70
2023-10-15T12:26:41.127Z,13.70
2023-10-15T12:27:42.558Z,13.70
2023-10-15T12:28:48.715Z,13.70
2023-10-15T12:29:50.243Z,13.70
2023-10-15T12:30:51.865Z,13.70
2023-10-15T12:31:53.664Z,13.70
2023-10-15T12:32:57.043Z,13.60
2023-10-15T12:34:01.906Z,13.60
2023-10-15T12:35:11.729Z,13.60
2023-10-15T12:36:13.884Z,13.50
2023-10-15T12:37:15.441Z,13.50
2023-10-15T12:38:27.942Z,13.40
2023-10-15T12:39:29.731Z,13.40
2023-10-15T12:40:34.532Z,13.50
2023-10-15T12:41:39.646Z,13.50
2023-10-15T12:42:41.370Z,13.60
2023-10-15T12:43:43.902Z,13.50
2023-10-15T12:44:47.810Z,13.50
2023-10-15T12:45:53.810Z,13.50
2023-10-15T12:46:55.623Z,13.40
2023-10-15T12:48:00.778Z,13.40
2023-10-15T12:49:04.421Z,13.30
2023-10-15T12:50:17.776Z,13.20
2023-10-15T12:51:20.335Z,13.10
2023-10-15T12:52:22.192Z,13.00
2023-10-15T12:53:26.418Z,13.10
2023-10-15T12:54:30.153Z,13.00
2023-10-15T12:55:31.542Z,12.90
2023-10-15T12:56:33.035Z,12.90
2023-10-15T12:57:34.813Z,12.90
2023-10-15T12:58:36.160Z,12.80
2023-10-15T12:59:37.826Z,12.90
2023-10-15T13:00:44.929Z,12.90
2023-10-15T13:01:47.373Z,12.90
2023-10-15T13:02:56.046Z,12.80
2023-10-15T13:03:59.838Z,12.80
2023-10-15T13:06:04.039Z,12.70
2023-10-15T13:07:05.383Z,12.70
2023-10-15T13:08:07.031Z,12.70
2023-10-15T13:09:20.252Z,12.70
2023-10-15T13:10:22.739Z,12.60
2023-10-15T13:11:24.584Z,12.60
2023-10-15T13:12:26.401Z,12.70
2023-10-15T13:13:27.742Z,12.60
2023-10-15T13:14:29.773Z,12.60
2023-10-15T13:15:31.124Z,12.60
2023-10-15T13:16:32.512Z,12.60
2023-10-15T13:17:34.190Z,12.60
2023-10-15T13:18:42.439Z,12.60
2023-10-15T13:19:45.342Z,12.60
2023-10-15T13:20:46.829Z,12.50
2023-10-15T13:21:48.192Z,12.50
2023-10-15T13:22:49.883Z,12.50
2023-10-15T13:23:51.469Z,12.50
2023-10-15T13:24:53.869Z,12.50
2023-10-15T13:25:55.490Z,12.50
2023-10-15T13:26:57.470Z,12.50
2023-10-15T13:28:00.120Z,12.50
2023-10-15T13:29:01.567Z,12.60
2023-10-15T13:30:05.233Z,12.70
2023-10-15T13:31:07.824Z,12.70
2023-10-15T13:32:09.332Z,12.90
2023-10-15T13:33:11.048Z,13.00
2023-10-15T13:34:13.338Z,13.10
2023-10-15T13:35:15.751Z,13.20
2023-10-15T13:36:17.110Z,13.30
2023-10-15T13:37:19.028Z,13.40
2023-10-15T13:38:20.476Z,13.40
2023-10-15T13:39:23.420Z,13.40
2023-10-15T13:40:25.043Z,13.30
2023-10-15T13:41:27.315Z,13.30
2023-10-15T13:42:28.683Z,13.30
2023-10-15T13:43:30.124Z,13.40
2023-10-15T13:44:31.521Z,13.30
2023-10-15T13:45:32.902Z,13.30
2023-10-15T13:46:34.294Z,13.40
2023-10-15T13:47:39.621Z,13.30
2023-10-15T13:48:41.449Z,13.30
2023-10-15T13:49:42.941Z,13.30
2023-10-15T13:50:44.440Z,13.20
2023-10-15T13:51:46.276Z,13.10
2023-10-15T13:52:48.375Z,13.00
2023-10-15T13:53:49.964Z,12.90
2023-10-15T13:54:51.558Z,12.80
2023-10-15T13:55:54.141Z,12.80
2023-10-15T13:56:58.810Z,12.80
2023-10-15T13:58:00.104Z,12.80
2023-10-15T13:59:01.578Z,12.70
2023-10-15T14:00:03.393Z,12.70
2023-10-15T14:01:05.929Z,12.70
2023-10-15T14:02:08.414Z,12.70